Weather at Fernandina Beach Municipal Airport

Public forecast

Using degrees Fahrenheit for public forecast. Weather courtesy of forecast.io.

Closest aviation weather report (METAR) to Fernandina Beach Municipal Airport

Closest report is Naval Station Mayport (Admiral David L. Mcdonald Field), 13.4 nm (24.8 km) S. Retrieved 2021/04/13 14:52 UTC (43 minutes ago):

KNRB 131452Z 01008G18KT 10SM FEW250 23/13 A3009 RMK AO2 SLP188 T02280133 53023

Closest aviation forecast (TAF) to Fernandina Beach Municipal Airport

Closest forecast is Jacksonville International Airport, 13.7 nm (25.3 km) WSW. Retrieved 2021/04/13 12:22 UTC (3 hours ago):

TAF KJAX 131120Z 1312/1412 29005KT P6SM FEW250 FM131500 05010KT P6SM FEW250 FM132000 10009KT P6SM SCT250 FM140100 VRB03KT P6SM BKN250